Time;durP1;ratioP1;P1;durP2;ratioP2;P2;SDS_P1;SDS_P2;PMS_P1;PMS_P2;Temp;Humidity;BMP_temperature;BMP_pressure;BME280_temperature;BME280_humidity;BME280_pressure;Samples;Min_cycle;Max_cycle;Signal;HPM_P1;HPM_P2
2021/09/01 00:01:40;;;;;;;6.63;5.77;;;;;;;15.53;91.02;99956.41;1370792;90;22270;-91
2021/09/01 00:04:07;;;;;;;6.63;5.57;;;;;;;15.53;90.41;99962.25;1371654;90;21364;-91
2021/09/01 00:06:34;;;;;;;8.10;5.47;;;;;;;15.53;90.63;99959.58;1370872;90;21301;-91
2021/09/01 00:09:03;;;;;;;6.37;5.47;;;;;;;15.52;90.90;99959.28;1370993;90;22361;-90
2021/09/01 00:11:31;;;;;;;6.53;5.43;;;;;;;15.53;90.53;99960.41;1351847;91;22307;-89
2021/09/01 00:13:58;;;;;;;7.90;5.73;;;;;;;15.54;90.32;99963.92;1370858;90;21349;-89
2021/09/01 00:16:26;;;;;;;6.70;6.00;;;;;;;15.54;91.21;99961.25;1370568;90;21361;-89
2021/09/01 00:19:06;;;;;;;10.47;6.20;;;;;;;15.53;90.81;99959.58;1370293;90;21421;-89
2021/09/01 00:21:34;;;;;;;10.95;6.00;;;;;;;15.53;91.13;99964.92;1370505;91;21406;-89
2021/09/01 00:24:01;;;;;;;6.77;6.10;;;;;;;15.50;92.46;99967.97;1371130;90;21303;-89
2021/09/01 00:26:28;;;;;;;6.03;5.27;;;;;;;15.52;90.90;99968.61;1371098;90;21527;-90
2021/09/01 00:28:58;;;;;;;5.97;5.30;;;;;;;15.49;91.59;99969.81;1371042;90;22285;-89
2021/09/01 00:31:26;;;;;;;9.10;5.43;;;;;;;15.51;91.29;99964.30;1370789;90;21272;-89
2021/09/01 00:33:53;;;;;;;7.47;5.07;;;;;;;15.51;91.12;99962.45;1371274;90;22359;-89
2021/09/01 00:36:20;;;;;;;7.30;6.03;;;;;;;15.50;92.19;99970.63;1369354;89;21674;-88
2021/09/01 00:38:48;;;;;;;6.67;5.70;;;;;;;15.51;91.13;99963.80;1358109;91;21453;-89
2021/09/01 00:41:20;;;;;;;6.97;5.67;;;;;;;15.52;91.21;99971.28;1358317;91;21339;-88
2021/09/01 00:43:49;;;;;;;8.33;6.57;;;;;;;15.51;91.69;99973.13;1358157;91;21517;-90
2021/09/01 00:46:17;;;;;;;5.80;5.20;;;;;;;15.50;91.76;99970.13;1358458;90;21421;-92
2021/09/01 00:48:45;;;;;;;6.83;6.13;;;;;;;15.53;90.91;99967.59;1358502;91;21316;-93
2021/09/01 00:51:14;;;;;;;11.60;6.67;;;;;;;15.53;91.63;99975.59;1358373;90;21347;-90
2021/09/01 00:53:47;;;;;;;5.60;4.97;;;;;;;15.54;90.77;99978.08;1358361;91;21324;-89
2021/09/01 00:56:21;;;;;;;5.87;4.57;;;;;;;15.56;90.89;99981.88;1358153;92;22242;-89
2021/09/01 00:58:50;;;;;;;11.20;5.73;;;;;;;15.53;91.33;99982.25;1356916;90;22281;-90
2021/09/01 01:01:18;;;;;;;7.00;5.67;;;;;;;15.51;91.29;99977.64;1355411;91;21321;-90
2021/09/01 01:03:54;;;;;;;8.70;5.50;;;;;;;15.50;91.47;99977.30;1355165;91;21344;-89
2021/09/01 01:06:27;;;;;;;6.17;5.57;;;;;;;15.51;90.55;99977.64;1355903;91;21358;-90
2021/09/01 01:08:55;;;;;;;7.57;5.87;;;;;;;15.48;90.88;99976.69;1356508;91;22238;-90
2021/09/01 01:11:23;;;;;;;5.43;4.93;;;;;;;15.51;90.49;99978.45;1355677;91;22318;-90
2021/09/01 01:13:52;;;;;;;5.37;4.87;;;;;;;15.50;91.05;99973.30;1355586;91;21314;-89
2021/09/01 01:16:22;;;;;;;6.53;5.23;;;;;;;15.48;91.10;99973.51;1336528;93;22298;-89
2021/09/01 01:18:54;;;;;;;6.80;6.05;;;;;;;15.47;90.78;99977.17;1355397;91;21427;-90
2021/09/01 01:21:27;;;;;;;6.67;5.30;;;;;;;15.48;90.59;99979.36;1355458;91;21373;-90
2021/09/01 01:23:57;;;;;;;7.00;5.17;;;;;;;15.45;91.74;99986.37;1355442;91;22290;-90
2021/09/01 01:26:26;;;;;;;7.37;5.50;;;;;;;15.41;91.25;99985.11;1355565;91;21321;-90
2021/09/01 01:28:56;;;;;;;6.10;5.47;;;;;;;15.37;92.31;99990.01;1355423;91;22365;-89
2021/09/01 01:31:24;;;;;;;6.50;4.95;;;;;;;15.40;91.07;99982.14;1355600;91;21380;-89
2021/09/01 01:33:52;;;;;;;6.03;5.00;;;;;;;15.37;92.11;99987.34;1355359;91;21396;-90
2021/09/01 01:36:19;;;;;;;7.10;5.33;;;;;;;15.38;91.51;99985.50;1355983;89;21395;-88
2021/09/01 01:38:47;;;;;;;5.83;5.23;;;;;;;15.37;91.47;99986.52;1355848;90;21549;-89
2021/09/01 01:41:14;;;;;;;8.33;5.10;;;;;;;15.38;91.09;99988.16;1371029;90;21302;-88
2021/09/01 01:43:47;;;;;;;5.93;4.47;;;;;;;15.36;91.19;99991.00;1371052;90;22324;-88
2021/09/01 01:46:14;;;;;;;12.57;5.70;;;;;;;15.32;91.34;99999.89;1371035;90;21464;-89
2021/09/01 01:48:42;;;;;;;8.27;4.90;;;;;;;15.31;90.97;99994.77;1371012;90;21534;-88
2021/09/01 01:51:09;;;;;;;6.57;4.47;;;;;;;15.28;92.13;99994.64;1371187;90;21529;-90
2021/09/01 01:53:36;;;;;;;5.20;4.70;;;;;;;15.28;91.41;99995.15;1370913;90;21386;-91
2021/09/01 01:56:04;;;;;;;6.80;4.17;;;;;;;15.26;91.86;99992.66;1351822;91;21346;-91
2021/09/01 01:58:31;;;;;;;5.33;4.57;;;;;;;15.20;91.74;99993.41;1370974;90;21438;-91
2021/09/01 02:00:59;;;;;;;5.20;4.07;;;;;;;15.17;91.51;99999.13;1371155;90;21494;-90
2021/09/01 02:03:26;;;;;;;5.57;4.57;;;;;;;15.16;91.26;99993.45;1371454;90;21282;-89
2021/09/01 02:05:53;;;;;;;5.37;4.87;;;;;;;15.18;91.15;100002.61;1371174;90;21305;-90
2021/09/01 02:08:20;;;;;;;6.67;4.30;;;;;;;15.15;91.63;100001.66;1352241;91;21498;-91
2021/09/01 02:10:47;;;;;;;6.20;4.97;;;;;;;15.11;91.47;99999.37;1357160;91;21288;-91
2021/09/01 02:13:14;;;;;;;4.70;4.17;;;;;;;15.07;91.06;100000.73;1356718;90;21494;-91
2021/09/01 02:15:41;;;;;;;5.30;3.77;;;;;;;15.01;91.46;100012.14;1357127;90;22212;-92
2021/09/01 02:18:08;;;;;;;4.50;3.90;;;;;;;15.02;90.93;100013.00;1357556;91;21287;-92
2021/09/01 02:20:35;;;;;;;4.40;3.97;;;;;;;15.00;91.58;100012.34;1357472;91;21376;-93
2021/09/01 02:23:03;;;;;;;5.57;3.97;;;;;;;14.99;91.90;100004.02;1357278;91;21377;-92
2021/09/01 02:25:30;;;;;;;6.80;4.47;;;;;;;14.99;91.48;100004.02;1357485;90;21331;-93
2021/09/01 02:27:58;;;;;;;5.27;3.90;;;;;;;14.99;91.75;100005.34;1357642;91;21339;-92
2021/09/01 02:30:25;;;;;;;8.60;5.07;;;;;;;15.01;91.55;100008.66;1357412;91;21332;-93
2021/09/01 02:32:52;;;;;;;3.83;3.43;;;;;;;15.00;91.31;100011.84;1357350;91;21435;-91
2021/09/01 02:35:19;;;;;;;8.33;4.27;;;;;;;15.00;91.07;100006.51;1357193;91;21450;-92
2021/09/01 02:37:51;;;;;;;4.83;3.70;;;;;;;15.03;91.08;100014.64;1348686;92;22784;-93
2021/09/01 02:40:16;;;;;;;10.63;4.67;;;;;;;15.04;91.29;100012.28;1357019;90;22263;-93
2021/09/01 02:42:43;;;;;;;4.17;3.73;;;;;;;15.03;91.81;100014.13;1356968;91;21287;-90
2021/09/01 02:45:10;;;;;;;4.93;3.10;;;;;;;15.06;91.50;100018.27;1357331;91;21376;-93
2021/09/01 02:47:37;;;;;;;5.63;3.40;;;;;;;15.06;91.76;100016.92;1357417;90;21347;-92
2021/09/01 02:50:06;;;;;;;4.80;3.27;;;;;;;15.06;91.84;100024.92;1357353;90;21332;-92
2021/09/01 02:52:33;;;;;;;3.83;2.90;;;;;;;15.07;91.87;100022.56;1357140;90;21369;-90
2021/09/01 02:55:00;;;;;;;9.93;3.83;;;;;;;15.07;91.62;100032.72;1356390;90;21317;-90
2021/09/01 02:57:27;;;;;;;4.20;3.60;;;;;;;15.07;91.23;100026.05;1356381;91;21309;-90
2021/09/01 02:59:54;;;;;;;6.50;3.70;;;;;;;15.07;91.67;100022.05;1356444;90;22507;-89
2021/09/01 03:02:21;;;;;;;4.10;3.50;;;;;;;15.13;91.75;100028.48;1356679;89;21339;-91
2021/09/01 03:04:48;;;;;;;4.83;3.17;;;;;;;15.20;91.51;100029.41;1356364;90;21354;-92
2021/09/01 03:07:16;;;;;;;4.90;3.10;;;;;;;15.21;91.39;100027.05;1356582;90;22307;-91
2021/09/01 03:09:43;;;;;;;3.47;3.10;;;;;;;15.27;91.02;100030.80;1356953;90;21398;-92
2021/09/01 03:12:10;;;;;;;4.93;3.47;;;;;;;15.26;91.08;100029.98;1357696;91;21302;-93
2021/09/01 03:14:37;;;;;;;8.27;4.03;;;;;;;15.26;90.61;100029.98;1357421;90;22882;-91
2021/09/01 03:17:04;;;;;;;8.60;4.20;;;;;;;15.29;90.83;100029.60;1356536;90;21465;-92
2021/09/01 03:19:31;;;;;;;7.67;2.83;;;;;;;15.29;90.64;100022.94;1338810;92;21473;-91
2021/09/01 03:21:59;;;;;;;6.73;3.07;;;;;;;15.29;90.55;100036.78;1338874;92;22352;-91
2021/09/01 03:24:26;;;;;;;3.40;3.10;;;;;;;15.24;90.68;100041.33;1338827;92;21331;-90
2021/09/01 03:26:53;;;;;;;4.27;2.60;;;;;;;15.20;91.26;100042.73;1338486;92;22161;-90
2021/09/01 03:29:20;;;;;;;3.97;3.13;;;;;;;15.19;91.05;100047.75;1338595;92;21407;-91
2021/09/01 03:31:47;;;;;;;5.07;3.33;;;;;;;15.17;91.10;100047.11;1338874;92;21362;-91
2021/09/01 03:34:14;;;;;;;6.40;3.43;;;;;;;15.19;90.82;100053.08;1356219;92;21398;-91
2021/09/01 03:36:42;;;;;;;4.63;3.67;;;;;;;15.19;91.35;100056.23;1358868;90;22292;-90
2021/09/01 03:39:09;;;;;;;4.87;3.50;;;;;;;15.18;90.85;100055.41;1357727;90;21479;-90
2021/09/01 03:41:36;;;;;;;7.57;3.90;;;;;;;15.19;91.02;100063.75;1357261;90;22263;-91
2021/09/01 03:44:04;;;;;;;3.60;2.97;;;;;;;15.18;91.19;100061.25;1356491;90;22283;-90
2021/09/01 03:46:31;;;;;;;4.13;2.67;;;;;;;15.15;91.58;100063.78;1357265;90;21317;-90
2021/09/01 03:48:59;;;;;;;3.60;2.93;;;;;;;15.10;91.77;100072.83;1347411;92;21324;-90
2021/09/01 03:51:26;;;;;;;3.83;3.30;;;;;;;15.08;91.63;100070.88;1357080;91;22197;-90
2021/09/01 03:53:53;;;;;;;8.20;3.00;;;;;;;15.11;91.23;100069.17;1357416;90;21324;-90
2021/09/01 03:56:20;;;;;;;2.60;2.40;;;;;;;15.13;91.38;100075.13;1357249;91;22368;-90
2021/09/01 03:58:47;;;;;;;3.50;2.70;;;;;;;15.11;91.94;100078.50;1357013;91;21516;-91
2021/09/01 04:01:15;;;;;;;5.37;3.23;;;;;;;15.08;92.25;100091.69;1357213;91;21324;-90
2021/09/01 04:03:41;;;;;;;4.03;2.97;;;;;;;15.07;92.47;100094.53;1357047;91;22218;-90
2021/09/01 04:06:09;;;;;;;4.40;3.43;;;;;;;15.10;92.22;100096.82;1359548;90;21243;-91
2021/09/01 04:08:37;;;;;;;4.67;3.07;;;;;;;15.15;92.07;100095.77;1360790;90;22830;-91
2021/09/01 04:11:05;;;;;;;4.53;3.17;;;;;;;15.19;91.76;100101.55;1359990;91;22161;-90
2021/09/01 04:13:33;;;;;;;4.73;3.20;;;;;;;15.23;91.78;100093.52;1360855;91;21421;-91
2021/09/01 04:16:01;;;;;;;4.60;3.23;;;;;;;15.27;91.61;100094.27;1360652;90;21427;-91
2021/09/01 04:18:28;;;;;;;5.23;2.83;;;;;;;15.29;92.15;100092.25;1360742;91;22403;-90
2021/09/01 04:20:56;;;;;;;8.70;3.03;;;;;;;15.33;91.88;100102.03;1360726;90;21531;-90
2021/09/01 04:23:23;;;;;;;5.53;2.60;;;;;;;15.37;91.72;100095.84;1361063;91;21502;-93
2021/09/01 04:25:50;;;;;;;6.67;2.63;;;;;;;15.39;91.48;100095.13;1361003;91;22270;-93
2021/09/01 04:28:19;;;;;;;6.23;3.23;;;;;;;15.43;91.29;100097.25;1360716;91;22137;-91
2021/09/01 04:30:46;;;;;;;4.57;3.50;;;;;;;15.42;91.88;100102.27;1360766;90;21421;-90
2021/09/01 04:33:13;;;;;;;5.23;2.20;;;;;;;15.46;91.30;100104.05;1361743;90;21590;-94
2021/09/01 04:35:41;;;;;;;4.97;2.57;;;;;;;15.48;91.34;100112.19;1361382;90;21287;-94
2021/09/01 04:38:08;;;;;;;5.33;2.80;;;;;;;15.52;91.34;100109.97;1354845;91;21677;-94
2021/09/01 04:40:35;;;;;;;3.77;2.90;;;;;;;15.56;91.28;100117.90;1366709;89;21294;-96
2021/09/01 04:43:03;;;;;;;2.50;2.27;;;;;;;15.61;90.92;100122.69;1368301;90;21523;-95
2021/09/01 04:45:30;;;;;;;6.47;2.43;;;;;;;15.61;90.87;100122.17;1369478;90;21316;-94
2021/09/01 04:47:58;;;;;;;4.30;2.87;;;;;;;15.67;90.66;100125.42;1353393;91;21526;-94
2021/09/01 04:50:25;;;;;;;3.07;2.77;;;;;;;15.69;90.54;100124.76;1367642;89;22203;-96
2021/09/01 04:52:52;;;;;;;4.20;2.20;;;;;;;15.71;90.33;100132.08;1369047;90;21325;-94
2021/09/01 04:55:19;;;;;;;4.70;3.00;;;;;;;15.71;90.22;100134.75;1368221;89;21331;-92
2021/09/01 04:57:48;;;;;;;3.70;2.77;;;;;;;15.74;90.17;100138.38;1366434;89;21338;-94
2021/09/01 05:00:15;;;;;;;2.83;2.23;;;;;;;15.77;90.30;100137.17;1366339;89;21435;-95
2021/09/01 05:02:42;;;;;;;4.83;2.60;;;;;;;15.76;90.13;100144.32;1368792;89;21465;-96
2021/09/01 05:05:10;;;;;;;3.00;1.90;;;;;;;15.75;90.35;100140.52;1367856;89;21280;-91
2021/09/01 05:07:37;;;;;;;6.43;2.13;;;;;;;15.74;89.98;100143.70;1366266;89;21539;-91
2021/09/01 05:10:05;;;;;;;7.93;2.30;;;;;;;15.71;90.13;100145.42;1365695;89;21428;-90
2021/09/01 05:12:32;;;;;;;3.10;2.57;;;;;;;15.76;89.80;100143.50;1365968;89;21338;-90
2021/09/01 05:15:00;;;;;;;3.80;2.30;;;;;;;15.79;89.95;100148.45;1365858;89;21235;-91
2021/09/01 05:17:27;;;;;;;3.23;2.60;;;;;;;15.87;89.89;100150.20;1365830;89;22212;-90
2021/09/01 05:19:54;;;;;;;2.17;1.97;;;;;;;15.92;89.63;100147.28;1352097;90;21406;-91
2021/09/01 05:22:27;;;;;;;2.90;2.30;;;;;;;15.91;89.58;100150.98;1359830;90;21251;-91
2021/09/01 05:25:10;;;;;;;3.70;2.10;;;;;;;15.94;89.52;100147.08;1351311;97;21464;-91
2021/09/01 05:27:44;;;;;;;4.73;2.30;;;;;;;15.97;89.25;100154.73;1358196;91;21272;-91
2021/09/01 05:30:15;;;;;;;4.57;2.50;;;;;;;16.00;89.32;100147.68;1388453;89;21390;-90
2021/09/01 05:32:46;;;;;;;2.67;2.30;;;;;;;16.06;89.20;100148.25;1388542;89;21324;-90
2021/09/01 05:35:14;;;;;;;1.90;1.70;;;;;;;16.12;89.24;100145.33;1359586;91;21257;-91
2021/09/01 05:37:42;;;;;;;5.23;2.33;;;;;;;16.15;88.79;100140.42;1389067;89;21323;-91
2021/09/01 05:40:12;;;;;;;2.50;2.27;;;;;;;16.19;88.64;100148.87;1359045;91;22299;-94
2021/09/01 05:42:40;;;;;;;4.62;2.10;;;;;;;16.27;88.72;100148.75;1379096;89;22101;-94
2021/09/01 05:45:08;;;;;;;8.23;1.93;;;;;;;16.34;88.31;100151.47;1378968;89;22316;-96
2021/09/01 05:47:36;;;;;;;2.60;1.70;;;;;;;16.40;87.79;100150.22;1379358;89;22160;-95
2021/09/01 05:50:05;;;;;;;2.43;1.70;;;;;;;16.43;87.44;100150.34;1378737;89;21335;-94
2021/09/01 05:52:32;;;;;;;2.27;1.80;;;;;;;16.46;87.70;100153.97;1378581;89;21309;-95
2021/09/01 05:55:04;;;;;;;4.20;1.60;;;;;;;16.53;88.10;100152.67;1359453;91;21312;-94
2021/09/01 05:57:40;;;;;;;2.60;1.63;;;;;;;16.67;88.06;100155.25;1379553;89;21368;-93
2021/09/01 06:00:15;;;;;;;1.90;1.70;;;;;;;16.80;87.13;100160.41;1382769;89;21216;-94
2021/09/01 06:02:55;;;;;;;2.70;1.30;;;;;;;16.95;86.95;100158.47;1381793;89;21236;-95
2021/09/01 06:05:28;;;;;;;2.17;1.65;;;;;;;17.11;86.58;100165.34;1368953;89;21600;-94
2021/09/01 06:07:58;;;;;;;1.73;1.63;;;;;;;17.20;85.47;100160.66;1379214;89;22167;-93
2021/09/01 06:10:30;;;;;;;3.37;2.00;;;;;;;17.26;84.93;100166.55;1379214;89;21342;-94
2021/09/01 06:13:01;;;;;;;2.57;1.70;;;;;;;17.26;84.60;100166.55;1390477;89;21416;-94
2021/09/01 06:15:29;;;;;;;6.73;2.03;;;;;;;17.34;84.47;100163.72;1377971;89;21484;-92
2021/09/01 06:17:56;;;;;;;2.73;1.70;;;;;;;17.41;84.29;100164.59;1378545;89;21568;-93
2021/09/01 06:20:23;;;;;;;2.67;1.43;;;;;;;17.46;83.76;100164.80;1358741;91;22314;-92
2021/09/01 06:22:51;;;;;;;1.93;1.50;;;;;;;17.51;82.70;100173.06;1378701;89;21944;-92
2021/09/01 06:25:18;;;;;;;1.43;1.33;;;;;;;17.60;82.80;100168.36;1378235;89;21242;-92
2021/09/01 06:27:51;;;;;;;5.03;1.50;;;;;;;17.65;82.23;100176.63;1379103;89;21331;-92
2021/09/01 06:30:19;;;;;;;3.03;1.10;;;;;;;17.76;82.03;100177.91;1378549;89;21301;-92
2021/09/01 06:32:47;;;;;;;2.30;1.12;;;;;;;17.82;81.56;100173.12;1378125;89;22176;-91
2021/09/01 06:39:14;;;;;;;1.17;1.07;;;;;;;18.21;80.91;100183.60;1372699;88;21362;-90
2021/09/01 06:41:42;;;;;;;6.25;1.70;;;;;;;18.45;79.45;100174.99;1373779;88;22302;-94
2021/09/01 06:44:10;;;;;;;1.92;1.00;;;;;;;18.57;77.57;100183.77;1374177;88;21371;-87
2021/09/01 06:46:39;;;;;;;3.12;1.30;;;;;;;18.72;77.89;100188.39;1373493;90;22117;-88
2021/09/01 06:49:09;;;;;;;1.40;0.95;;;;;;;18.82;77.33;100192.86;1373984;89;22287;-89
2021/09/01 06:51:38;;;;;;;5.08;1.80;;;;;;;18.87;77.01;100193.08;1373840;90;22191;-87
2021/09/01 06:54:05;;;;;;;4.85;1.17;;;;;;;18.97;76.29;100199.34;1373818;89;21391;-86
2021/09/01 06:56:32;;;;;;;1.32;1.07;;;;;;;19.10;75.84;100209.22;1356679;91;21326;-86
2021/09/01 06:59:00;;;;;;;1.77;1.10;;;;;;;19.08;75.17;100200.58;1373632;90;21325;-86
2021/09/01 07:01:27;;;;;;;2.40;1.35;;;;;;;19.18;75.52;100215.70;1373609;90;21386;-87
2021/09/01 07:03:55;;;;;;;2.50;1.27;;;;;;;19.21;75.17;100210.45;1374176;90;21318;-86
2021/09/01 07:06:23;;;;;;;1.15;1.05;;;;;;;19.25;74.99;100217.88;1373847;90;21311;-87
2021/09/01 07:08:50;;;;;;;1.40;0.90;;;;;;;19.31;74.34;100226.42;1373774;90;21335;-87
2021/09/01 07:11:18;;;;;;;5.35;1.00;;;;;;;19.20;72.41;100227.59;1373684;90;21259;-87
2021/09/01 07:13:45;;;;;;;3.10;0.88;;;;;;;19.11;72.93;100229.66;1373692;88;21525;-86
2021/09/01 07:16:15;;;;;;;2.75;1.00;;;;;;;19.12;73.02;100229.95;1356649;90;21592;-86
2021/09/01 07:18:42;;;;;;;0.90;0.90;;;;;;;19.07;72.79;100235.11;1373028;90;21304;-86
2021/09/01 07:21:10;;;;;;;1.87;0.85;;;;;;;19.05;72.99;100239.88;1373907;89;21437;-87
2021/09/01 07:23:37;;;;;;;1.12;1.00;;;;;;;18.95;71.93;100241.63;1373842;90;21371;-86
2021/09/01 07:26:05;;;;;;;5.60;1.17;;;;;;;18.84;71.71;100240.90;1373384;90;21289;-86
2021/09/01 07:28:34;;;;;;;5.92;1.25;;;;;;;18.89;73.05;100247.82;1373394;90;21223;-87
2021/09/01 07:31:01;;;;;;;1.72;1.10;;;;;;;18.94;72.73;100244.83;1373470;90;21341;-87
2021/09/01 07:33:28;;;;;;;2.65;1.05;;;;;;;19.01;72.88;100250.70;1374088;90;21319;-86
2021/09/01 07:35:56;;;;;;;1.32;1.22;;;;;;;19.06;72.46;100255.75;1374166;90;22094;-87
2021/09/01 07:38:23;;;;;;;1.40;1.07;;;;;;;19.15;72.72;100257.70;1374131;90;21297;-86
2021/09/01 07:40:50;;;;;;;5.17;1.75;;;;;;;19.23;72.52;100260.18;1374076;90;22294;-86
2021/09/01 07:43:19;;;;;;;4.20;1.72;;;;;;;19.34;72.50;100266.78;1374071;88;21400;-87
2021/09/01 07:45:47;;;;;;;2.67;1.52;;;;;;;19.36;71.05;100273.59;1357143;91;22338;-87
2021/09/01 07:48:15;;;;;;;3.65;1.70;;;;;;;19.52;71.41;100272.83;1374151;90;21603;-87
2021/09/01 07:50:43;;;;;;;4.50;1.25;;;;;;;19.65;71.14;100274.64;1374163;90;21377;-87
2021/09/01 07:53:11;;;;;;;2.70;1.07;;;;;;;19.71;70.22;100270.64;1374027;90;21297;-86
2021/09/01 07:55:38;;;;;;;4.10;0.88;;;;;;;19.76;70.08;100272.68;1374008;90;21304;-87
2021/09/01 07:58:05;;;;;;;8.95;1.40;;;;;;;19.86;70.10;100264.20;1374001;90;21281;-86
2021/09/01 08:00:33;;;;;;;1.10;0.98;;;;;;;19.90;68.36;100278.31;1373937;90;22669;-85
2021/09/01 08:03:00;;;;;;;2.05;1.25;;;;;;;20.05;69.10;100274.02;1374023;90;21396;-86
2021/09/01 08:05:27;;;;;;;1.02;0.93;;;;;;;20.10;69.10;100280.09;1374007;90;21429;-86
2021/09/01 08:07:54;;;;;;;1.05;0.70;;;;;;;20.14;68.73;100275.94;1374262;90;21419;-87
2021/09/01 08:10:23;;;;;;;1.50;0.93;;;;;;;19.92;67.57;100286.98;1374393;88;21283;-85
2021/09/01 08:12:50;;;;;;;2.05;1.10;;;;;;;19.92;67.57;100286.98;1373942;90;21289;-87
2021/09/01 08:15:17;;;;;;;2.12;1.15;;;;;;;19.92;67.85;100294.23;1374101;90;21326;-87
2021/09/01 08:17:44;;;;;;;3.62;1.25;;;;;;;19.96;67.80;100281.48;1374103;90;21326;-87
2021/09/01 08:20:13;;;;;;;5.92;1.15;;;;;;;19.96;67.80;100281.48;1374201;88;21296;-87
2021/09/01 08:22:42;;;;;;;4.35;1.27;;;;;;;19.86;67.87;100297.77;1374276;90;21244;-88
2021/09/01 08:25:11;;;;;;;5.35;0.80;;;;;;;19.51;68.84;100310.92;1374291;89;21303;-88
2021/09/01 08:27:38;;;;;;;1.40;1.00;;;;;;;19.45;69.54;100316.28;1375908;88;21274;-86
2021/09/01 08:30:07;;;;;;;5.12;0.98;;;;;;;19.11;70.06;100318.17;1375143;90;21282;-88
2021/09/01 08:32:34;;;;;;;4.40;1.00;;;;;;;18.92;71.15;100318.47;1375008;90;22162;-90
2021/09/01 08:35:01;;;;;;;1.50;0.78;;;;;;;18.67;70.98;100312.82;1374274;89;21275;-87
2021/09/01 08:37:29;;;;;;;1.10;0.70;;;;;;;18.59;71.35;100313.03;1373850;90;21296;-87
2021/09/01 08:39:56;;;;;;;2.90;0.60;;;;;;;18.49;72.03;100316.91;1370908;90;22256;-87
2021/09/01 08:42:24;;;;;;;2.77;0.90;;;;;;;18.43;72.70;100321.73;1365302;90;21382;-87
2021/09/01 08:44:51;;;;;;;2.05;0.75;;;;;;;18.37;73.11;100326.56;1365757;90;21371;-87
2021/09/01 08:47:19;;;;;;;3.62;0.88;;;;;;;18.27;74.91;100338.19;1365524;90;22389;-86
2021/09/01 08:49:47;;;;;;;1.17;0.82;;;;;;;18.24;76.09;100338.55;1370019;89;21283;-87
2021/09/01 08:52:15;;;;;;;2.10;0.80;;;;;;;18.28;75.25;100334.47;1371799;90;21376;-86
2021/09/01 08:54:42;;;;;;;0.93;0.80;;;;;;;18.36;75.97;100335.64;1371449;90;21275;-87
2021/09/01 08:57:14;;;;;;;1.87;1.00;;;;;;;18.69;76.86;100340.25;1371672;90;21391;-87
2021/09/01 08:59:41;;;;;;;1.42;0.70;;;;;;;18.96;76.46;100332.28;1371328;92;21305;-87
2021/09/01 09:02:09;;;;;;;3.20;1.00;;;;;;;19.15;75.90;100324.77;1371741;90;22802;-87
2021/09/01 09:04:38;;;;;;;1.62;1.40;;;;;;;19.26;74.46;100332.20;1371710;90;21445;-87
2021/09/01 09:07:08;;;;;;;1.45;1.05;;;;;;;19.44;74.21;100334.77;1369959;90;21265;-87
2021/09/01 09:09:44;;;;;;;1.77;0.80;;;;;;;19.56;74.08;100338.47;1371287;90;21275;-86
2021/09/01 09:12:11;;;;;;;4.05;1.02;;;;;;;19.60;73.63;100339.72;1334259;93;21414;-88
2021/09/01 09:14:50;;;;;;;1.77;0.88;;;;;;;19.78;73.22;100337.22;1353235;91;21386;-88
2021/09/01 09:17:20;;;;;;;1.98;1.10;;;;;;;19.91;72.42;100339.56;1353434;91;22335;-87
2021/09/01 09:19:58;;;;;;;1.98;1.20;;;;;;;20.04;71.79;100339.53;1353083;91;21290;-87
2021/09/01 09:22:36;;;;;;;0.98;0.85;;;;;;;20.17;71.91;100336.81;1355207;91;21309;-87
2021/09/01 09:25:12;;;;;;;2.33;1.00;;;;;;;20.41;71.49;100327.70;1368573;94;21225;-87
2021/09/01 09:28:04;;;;;;;1.00;0.72;;;;;;;20.60;70.28;100325.47;1371295;89;21398;-88
2021/09/01 09:30:39;;;;;;;1.75;0.90;;;;;;;20.55;69.15;100329.84;1371588;90;21290;-87
2021/09/01 09:33:18;;;;;;;1.85;0.82;;;;;;;20.64;69.22;100326.67;1370493;90;22263;-87
2021/09/01 09:36:06;;;;;;;1.50;0.75;;;;;;;20.67;68.33;100322.20;1368043;92;21468;-86
2021/09/01 09:38:47;;;;;;;0.90;0.82;;;;;;;20.84;67.84;100319.82;1349827;91;21465;-87
2021/09/01 09:41:25;;;;;;;4.97;0.93;;;;;;;21.13;67.33;100322.92;1378773;90;21340;-87
2021/09/01 09:43:55;;;;;;;2.87;0.82;;;;;;;21.46;65.10;100317.79;1392982;88;21428;-87
2021/09/01 09:46:24;;;;;;;1.00;0.72;;;;;;;21.37;64.87;100326.67;1391635;88;21414;-86
2021/09/01 09:49:36;;;;;;;1.03;0.67;;;;;;;21.19;62.64;100334.15;1391537;88;21496;-86
2021/09/01 09:55:36;;;;;;;2.05;1.05;;;;;;;21.28;62.17;100329.31;1386099;89;22137;-87
2021/09/01 09:58:16;;;;;;;2.98;0.62;;;;;;;21.25;61.87;100339.17;1392922;88;22374;-87
2021/09/01 10:01:08;;;;;;;0.55;0.50;;;;;;;21.35;62.14;100332.79;1387204;88;21436;-87
2021/09/01 10:03:37;;;;;;;0.85;0.68;;;;;;;21.42;60.41;100330.88;1393476;88;21406;-88
2021/09/01 10:06:08;;;;;;;1.87;0.50;;;;;;;21.46;60.21;100332.06;1392449;88;21133;-88
2021/09/01 10:08:38;;;;;;;1.07;0.60;;;;;;;21.03;57.60;100338.22;1392691;88;21221;-87
2021/09/01 10:11:09;;;;;;;0.60;0.42;;;;;;;20.88;59.23;100341.20;1393098;88;21289;-86
2021/09/01 10:13:41;;;;;;;1.20;0.53;;;;;;;20.68;60.93;100341.32;1377956;89;22302;-87
2021/09/01 10:16:28;;;;;;;3.35;1.00;;;;;;;20.63;62.11;100345.20;1392664;88;21447;-87
2021/09/01 10:19:20;;;;;;;1.67;1.10;;;;;;;20.51;62.02;100345.52;1392918;88;21434;-87
2021/09/01 10:21:57;;;;;;;3.00;1.25;;;;;;;20.47;63.14;100341.63;1392846;88;21332;-87
2021/09/01 10:24:39;;;;;;;2.70;0.88;;;;;;;20.44;64.07;100343.41;1392910;88;22329;-87
2021/09/01 10:27:11;;;;;;;1.42;0.70;;;;;;;20.61;64.18;100335.17;1392660;88;21443;-87
2021/09/01 10:29:46;;;;;;;1.15;0.60;;;;;;;20.70;63.03;100337.91;1393236;88;21266;-87
2021/09/01 10:32:26;;;;;;;0.90;0.70;;;;;;;20.70;63.80;100336.56;1393449;88;21443;-87
2021/09/01 10:35:17;;;;;;;2.80;0.70;;;;;;;20.63;63.64;100340.31;1392812;88;21376;-87
2021/09/01 10:37:53;;;;;;;0.70;0.50;;;;;;;20.55;64.11;100332.00;1392954;88;21355;-87
2021/09/01 10:40:30;;;;;;;3.85;0.60;;;;;;;20.78;63.69;100340.05;1392983;87;21407;-87
2021/09/01 10:43:00;;;;;;;1.10;1.00;;;;;;;20.78;63.69;100340.05;1392786;88;22080;-87
2021/09/01 10:46:07;;;;;;;1.47;0.93;;;;;;;20.94;63.66;100336.81;1393376;88;21332;-87
2021/09/01 10:53:19;;;;;;;9.20;0.72;;;;;;;21.54;61.51;100337.70;1393176;88;22087;-88
2021/09/01 10:56:05;;;;;;;5.65;0.57;;;;;;;22.26;60.02;100335.28;1392251;88;21310;-87
2021/09/01 10:58:42;;;;;;;1.98;1.10;;;;;;;22.53;59.04;100339.81;1392945;88;21266;-87
2021/09/01 11:01:22;;;;;;;0.65;0.60;;;;;;;22.45;57.08;100340.95;1403704;88;21348;-87
2021/09/01 11:04:02;;;;;;;1.55;0.72;;;;;;;22.24;57.13;100337.37;1378365;91;21310;-88
2021/09/01 11:06:32;;;;;;;3.30;0.70;;;;;;;21.77;56.95;100345.95;1392411;88;21266;-87
2021/09/01 11:09:12;;;;;;;1.42;0.95;;;;;;;21.66;58.44;100344.52;1392887;88;21281;-87
2021/09/01 11:11:52;;;;;;;;;;;;;;;21.61;58.58;100351.94;1394833;88;21295;-88
2021/09/01 11:14:48;;;;;;;1.47;0.60;;;;;;;21.77;59.17;100345.14;1396498;88;20250;-88
2021/09/01 11:17:27;;;;;;;2.42;0.93;;;;;;;22.07;59.15;100346.05;1393140;90;21215;-88
2021/09/01 11:20:08;;;;;;;4.28;0.50;;;;;;;22.10;58.04;100348.83;1392890;88;21355;-87
2021/09/01 11:22:37;;;;;;;1.55;0.50;;;;;;;22.01;56.63;100352.34;1392731;88;22444;-88
2021/09/01 11:25:14;;;;;;;3.00;0.50;;;;;;;21.85;57.88;100355.63;1392586;88;21356;-87
2021/09/01 11:27:57;;;;;;;6.85;0.80;;;;;;;21.14;58.91;100364.39;1392722;88;21340;-86
2021/09/01 11:30:33;;;;;;;4.47;1.12;;;;;;;20.70;64.90;100379.59;1392024;88;22360;-87
2021/09/01 11:33:00;;;;;;;11.53;0.93;;;;;;;20.66;63.64;100378.38;1392555;88;21288;-87
2021/09/01 11:35:37;;;;;;;4.75;1.00;;;;;;;20.55;65.64;100373.67;1393039;88;21221;-86
2021/09/01 11:38:08;;;;;;;8.20;1.05;;;;;;;20.47;66.38;100371.20;1392597;88;21163;-86
2021/09/01 11:40:40;;;;;;;3.02;0.90;;;;;;;20.38;67.59;100371.14;1390343;88;21385;-86
2021/09/01 11:43:12;;;;;;;2.08;0.70;;;;;;;20.39;68.18;100367.41;1381789;89;22640;-86
2021/09/01 11:45:52;;;;;;;2.15;0.70;;;;;;;20.48;68.37;100367.45;1381653;89;21282;-86
2021/09/01 11:48:23;;;;;;;1.65;0.82;;;;;;;20.52;69.03;100372.73;1362201;90;21377;-86
2021/09/01 11:51:30;;;;;;;1.05;0.60;;;;;;;20.50;71.11;100373.45;1381519;89;21327;-85
2021/09/01 11:53:59;;;;;;;2.02;0.72;;;;;;;20.40;70.99;100370.39;1362068;91;21216;-87